Time;durP1;ratioP1;P1;durP2;ratioP2;P2;SDS_P1;SDS_P2;PMS_P1;PMS_P2;Temp;Humidity;BMP_temperature;BMP_pressure;BME280_temperature;BME280_humidity;BME280_pressure;Samples;Min_cycle;Max_cycle;Signal;HPM_P1;HPM_P2
2023/04/05 00:00:11;;;;;;;66.43;31.60;;;;;;;;;;5016122;28;20037;-57
2023/04/05 00:02:39;;;;;;;64.72;30.80;;;;;;;;;;5016028;28;20026;-57
2023/04/05 00:05:05;;;;;;;45.40;23.40;;;;;;;;;;5033402;28;20032;-57
2023/04/05 00:07:33;;;;;;;44.42;21.65;;;;;;;;;;5033561;28;20029;-56
2023/04/05 00:09:59;;;;;;;38.78;20.10;;;;;;;;;;5033572;28;20030;-57
2023/04/05 00:12:24;;;;;;;40.85;20.95;;;;;;;;;;5033397;28;20064;-57
2023/04/05 00:14:50;;;;;;;39.47;20.65;;;;;;;;;;5016238;28;20123;-57
2023/04/05 00:17:15;;;;;;;38.67;21.60;;;;;;;;;;5016132;28;20053;-58
2023/04/05 00:19:42;;;;;;;39.97;21.75;;;;;;;;;;5032406;28;20032;-58
2023/04/05 00:22:09;;;;;;;39.65;19.23;;;;;;;;;;5033768;28;20116;-58
2023/04/05 00:24:37;;;;;;;37.05;20.02;;;;;;;;;;5033499;28;20040;-58
2023/04/05 00:27:03;;;;;;;41.40;21.15;;;;;;;;;;5033384;28;20436;-58
2023/04/05 00:29:29;;;;;;;42.45;21.60;;;;;;;;;;5031624;28;20113;-56
2023/04/05 00:31:55;;;;;;;37.83;20.70;;;;;;;;;;5033252;28;20021;-56
2023/04/05 00:34:20;;;;;;;41.47;20.73;;;;;;;;;;5033298;28;20053;-56
2023/04/05 00:36:46;;;;;;;38.58;21.20;;;;;;;;;;5015815;28;20379;-56
2023/04/05 00:39:11;;;;;;;30.27;17.20;;;;;;;;;;5031840;28;20033;-56
2023/04/05 00:41:36;;;;;;;75.60;46.38;;;;;;;;;;5015890;28;20029;-56
2023/04/05 00:44:02;;;;;;;37.22;21.85;;;;;;;;;;5015654;28;20135;-57
2023/04/05 00:46:32;;;;;;;39.63;20.70;;;;;;;;;;5033945;28;20080;-56
2023/04/05 00:48:57;;;;;;;40.40;20.33;;;;;;;;;;5002724;28;20051;-56
2023/04/05 00:51:23;;;;;;;38.35;19.80;;;;;;;;;;5036587;28;20749;-56
2023/04/05 00:53:51;;;;;;;48.92;26.55;;;;;;;;;;5019673;28;20013;-56
2023/04/05 00:56:17;;;;;;;36.92;20.38;;;;;;;;;;5036817;28;20038;-56
2023/04/05 00:58:42;;;;;;;37.70;18.52;;;;;;;;;;5035487;28;20052;-57
2023/04/05 01:01:17;;;;;;;38.58;19.67;;;;;;;;;;5019185;28;20036;-57
2023/04/05 01:03:48;;;;;;;38.72;20.17;;;;;;;;;;5019435;28;20072;-56
2023/04/05 01:06:14;;;;;;;36.92;18.65;;;;;;;;;;5036597;28;20061;-57
2023/04/05 01:08:44;;;;;;;37.38;18.85;;;;;;;;;;5034962;28;20494;-57
2023/04/05 01:11:10;;;;;;;36.00;19.42;;;;;;;;;;5018707;28;20025;-57
2023/04/05 01:13:36;;;;;;;39.47;19.90;;;;;;;;;;5018444;28;20091;-57
2023/04/05 01:16:01;;;;;;;40.15;19.85;;;;;;;;;;5036393;28;20021;-57
2023/04/05 01:18:31;;;;;;;45.38;21.77;;;;;;;;;;5034805;28;20073;-57
2023/04/05 01:21:00;;;;;;;42.05;21.38;;;;;;;;;;5036800;28;20108;-58
2023/04/05 01:23:49;;;;;;;44.17;21.98;;;;;;;;;;5036377;28;20060;-57
2023/04/05 01:26:15;;;;;;;39.90;20.83;;;;;;;;;;5018654;28;20467;-57
2023/04/05 01:29:02;;;;;;;34.38;19.10;;;;;;;;;;5036261;28;20088;-58
2023/04/05 01:31:42;;;;;;;38.72;19.63;;;;;;;;;;5036490;28;20033;-56
2023/04/05 01:34:16;;;;;;;39.42;18.98;;;;;;;;;;5036222;28;20034;-57
2023/04/05 01:36:44;;;;;;;36.92;18.63;;;;;;;;;;5036293;28;20104;-56
2023/04/05 01:39:16;;;;;;;35.72;18.95;;;;;;;;;;5036469;28;20029;-56
2023/04/05 01:41:42;;;;;;;30.13;18.00;;;;;;;;;;5035661;28;20068;-57
2023/04/05 01:44:07;;;;;;;32.13;17.60;;;;;;;;;;5018329;28;20444;-64
2023/04/05 01:46:33;;;;;;;33.33;18.75;;;;;;;;;;5035117;28;20028;-58
2023/04/05 01:48:58;;;;;;;36.17;20.55;;;;;;;;;;5035485;28;20475;-57
2023/04/05 01:51:24;;;;;;;39.08;21.35;;;;;;;;;;5017725;28;20557;-57
2023/04/05 01:53:55;;;;;;;41.80;22.77;;;;;;;;;;5018145;28;20415;-57
2023/04/05 01:56:20;;;;;;;;;;;;;;;;;;5034765;28;20360;-57
2023/04/05 01:58:50;;;;;;;42.13;19.97;;;;;;;;;;5022238;23;19924;-58
2023/04/05 02:01:18;;;;;;;47.13;22.02;;;;;;;;;;5046988;23;20308;-64
2023/04/05 02:03:43;;;;;;;40.08;20.70;;;;;;;;;;5035477;28;20357;-64
2023/04/05 02:06:08;;;;;;;42.50;21.10;;;;;;;;;;5017509;28;20029;-64
2023/04/05 02:08:35;;;;;;;38.35;20.27;;;;;;;;;;5033837;28;20479;-64
2023/04/05 02:11:00;;;;;;;35.22;19.13;;;;;;;;;;5035171;28;20064;-64
2023/04/05 02:13:26;;;;;;;37.80;18.83;;;;;;;;;;5035621;28;20025;-64
2023/04/05 02:15:51;;;;;;;33.38;17.52;;;;;;;;;;5017291;28;20060;-64
2023/04/05 02:18:21;;;;;;;35.20;17.92;;;;;;;;;;5017217;28;20117;-64
2023/04/05 02:20:50;;;;;;;37.15;18.33;;;;;;;;;;5034172;28;20065;-64
2023/04/05 02:23:17;;;;;;;35.63;19.23;;;;;;;;;;5033560;28;20442;-64
2023/04/05 02:25:46;;;;;;;37.40;19.88;;;;;;;;;;5035020;28;20482;-64
2023/04/05 02:28:11;;;;;;;38.65;18.95;;;;;;;;;;5034977;28;20483;-65
2023/04/05 02:30:37;;;;;;;37.55;18.67;;;;;;;;;;5034742;28;20056;-64
2023/04/05 02:33:02;;;;;;;36.80;19.20;;;;;;;;;;5001871;28;20334;-64
2023/04/05 02:35:27;;;;;;;35.85;19.63;;;;;;;;;;4997613;28;20100;-64
2023/04/05 02:37:53;;;;;;;40.83;19.63;;;;;;;;;;5014935;28;20083;-65
2023/04/05 02:40:20;;;;;;;38.70;19.95;;;;;;;;;;5015183;28;20068;-65
2023/04/05 02:42:45;;;;;;;38.45;19.80;;;;;;;;;;4997164;28;20038;-64
2023/04/05 02:45:11;;;;;;;41.75;19.67;;;;;;;;;;4997097;28;20044;-65
2023/04/05 02:47:36;;;;;;;37.38;18.90;;;;;;;;;;4980828;28;20030;-64
2023/04/05 02:50:01;;;;;;;35.88;19.63;;;;;;;;;;4997387;28;20069;-64
2023/04/05 02:52:33;;;;;;;35.25;18.95;;;;;;;;;;5013471;28;20061;-64
2023/04/05 02:54:58;;;;;;;37.17;19.52;;;;;;;;;;4996955;28;20022;-64
2023/04/05 02:57:28;;;;;;;34.15;18.00;;;;;;;;;;4997149;28;20036;-65
2023/04/05 03:00:02;;;;;;;36.88;18.92;;;;;;;;;;4996790;28;20499;-64
2023/04/05 03:02:30;;;;;;;38.50;19.35;;;;;;;;;;4996772;28;20056;-64
2023/04/05 03:04:55;;;;;;;33.10;17.77;;;;;;;;;;5014589;28;20108;-64
2023/04/05 03:07:24;;;;;;;34.13;17.80;;;;;;;;;;4996709;28;20033;-64
2023/04/05 03:09:50;;;;;;;34.75;17.27;;;;;;;;;;5012176;28;20026;-64
2023/04/05 03:12:17;;;;;;;35.90;17.33;;;;;;;;;;4996823;28;20053;-65
2023/04/05 03:14:45;;;;;;;34.53;18.00;;;;;;;;;;5014466;28;20030;-64
2023/04/05 03:17:15;;;;;;;33.72;17.90;;;;;;;;;;5014869;28;20017;-65
2023/04/05 03:19:44;;;;;;;32.13;16.48;;;;;;;;;;4981345;28;20022;-65
2023/04/05 03:22:17;;;;;;;36.47;16.83;;;;;;;;;;4996477;28;20034;-64
2023/04/05 03:24:43;;;;;;;38.13;17.05;;;;;;;;;;4996455;28;20018;-64
2023/04/05 03:27:13;;;;;;;32.80;16.98;;;;;;;;;;5013980;28;20241;-64
2023/04/05 03:30:02;;;;;;;38.58;17.88;;;;;;;;;;5001047;28;20487;-64
2023/04/05 03:32:31;;;;;;;32.30;16.67;;;;;;;;;;4997581;28;20077;-63
2023/04/05 03:35:05;;;;;;;35.75;18.08;;;;;;;;;;4981885;28;20022;-64
2023/04/05 03:37:32;;;;;;;32.40;16.73;;;;;;;;;;4996306;28;20044;-63
2023/04/05 03:40:00;;;;;;;35.20;18.15;;;;;;;;;;4996592;28;20098;-64
2023/04/05 03:42:26;;;;;;;31.00;17.35;;;;;;;;;;5014150;28;20058;-64
2023/04/05 03:44:52;;;;;;;32.47;17.13;;;;;;;;;;4980289;28;20395;-64
2023/04/05 03:47:18;;;;;;;36.90;18.38;;;;;;;;;;4996340;28;20029;-64
2023/04/05 03:49:44;;;;;;;35.33;18.42;;;;;;;;;;4996093;28;20080;-64
2023/04/05 03:52:09;;;;;;;36.17;19.17;;;;;;;;;;5014341;28;20080;-64
2023/04/05 03:54:35;;;;;;;34.15;19.25;;;;;;;;;;4996147;28;20022;-64
2023/04/05 03:57:01;;;;;;;36.17;19.42;;;;;;;;;;4996619;28;20030;-63
2023/04/05 03:59:27;;;;;;;36.25;18.90;;;;;;;;;;4996549;28;20176;-64
2023/04/05 04:01:52;;;;;;;37.92;20.08;;;;;;;;;;5013512;28;20125;-64
2023/04/05 04:04:20;;;;;;;36.03;19.23;;;;;;;;;;4996446;28;20028;-57
2023/04/05 04:06:46;;;;;;;39.95;19.70;;;;;;;;;;4996451;28;20373;-57
2023/04/05 04:09:14;;;;;;;35.55;19.83;;;;;;;;;;5014315;28;20587;-57
2023/04/05 04:11:40;;;;;;;35.58;18.80;;;;;;;;;;4996395;28;20116;-56
2023/04/05 04:14:06;;;;;;;34.05;18.65;;;;;;;;;;4996275;28;20036;-56
2023/04/05 04:16:44;;;;;;;38.47;19.90;;;;;;;;;;5014197;28;20356;-58
2023/04/05 04:19:28;;;;;;;35.42;18.27;;;;;;;;;;5013864;28;20041;-57
2023/04/05 04:22:19;;;;;;;38.72;18.70;;;;;;;;;;5017170;28;20384;-65
2023/04/05 04:25:15;;;;;;;34.88;18.30;;;;;;;;;;4930408;28;20079;-65
2023/04/05 04:27:41;;;;;;;34.05;18.17;;;;;;;;;;5016849;28;20041;-65
2023/04/05 04:30:25;;;;;;;33.00;18.52;;;;;;;;;;5017787;28;20033;-65
2023/04/05 04:33:26;;;;;;;;;;;;;;;;;;4937866;29;20051;-65
2023/04/05 04:36:08;;;;;;;42.35;22.92;;;;;;;;;;4988188;28;20310;-64
2023/04/05 04:39:09;;;;;;;38.58;22.13;;;;;;;;;;4996478;28;20100;-64
2023/04/05 04:41:53;;;;;;;38.15;20.92;;;;;;;;;;5002636;28;20125;-64
2023/04/05 04:44:27;;;;;;;49.78;24.10;;;;;;;;;;5017611;28;20499;-64
2023/04/05 04:46:58;;;;;;;44.15;21.20;;;;;;;;;;5016823;28;20034;-64
2023/04/05 04:49:59;;;;;;;47.83;22.08;;;;;;;;;;4995773;28;20042;-64
2023/04/05 04:52:26;;;;;;;52.45;22.73;;;;;;;;;;5017003;28;20482;-64
2023/04/05 04:54:51;;;;;;;49.42;22.00;;;;;;;;;;5036822;28;20026;-64
2023/04/05 04:57:17;;;;;;;42.20;21.48;;;;;;;;;;5018664;28;20025;-64
2023/04/05 04:59:43;;;;;;;41.20;21.10;;;;;;;;;;5036540;28;20033;-64
2023/04/05 05:02:10;;;;;;;42.28;20.55;;;;;;;;;;5035574;28;20052;-64
2023/04/05 05:04:35;;;;;;;40.42;21.35;;;;;;;;;;5036386;28;20044;-65
2023/04/05 05:07:02;;;;;;;44.70;24.88;;;;;;;;;;5036594;28;20029;-57
2023/04/05 05:09:27;;;;;;;43.90;24.95;;;;;;;;;;5035934;28;20034;-57
2023/04/05 05:11:58;;;;;;;89.20;45.38;;;;;;;;;;5018507;28;20026;-57
2023/04/05 05:14:23;;;;;;;81.22;42.15;;;;;;;;;;5018044;28;20087;-56
2023/04/05 05:16:49;;;;;;;113.80;54.13;;;;;;;;;;5035892;28;20029;-57
2023/04/05 05:19:16;;;;;;;103.88;51.83;;;;;;;;;;5002361;28;20030;-57
2023/04/05 05:21:49;;;;;;;96.75;48.47;;;;;;;;;;5018698;28;20175;-57
2023/04/05 05:24:14;;;;;;;51.33;27.48;;;;;;;;;;5036191;28;20100;-57
2023/04/05 05:26:41;;;;;;;55.78;26.65;;;;;;;;;;5036433;28;20037;-57
2023/04/05 05:29:07;;;;;;;48.80;26.00;;;;;;;;;;5018344;28;20419;-57
2023/04/05 05:31:38;;;;;;;78.07;41.05;;;;;;;;;;5018372;28;20045;-57
2023/04/05 05:34:03;;;;;;;87.93;44.38;;;;;;;;;;5035379;28;20029;-57
2023/04/05 05:36:34;;;;;;;111.82;67.28;;;;;;;;;;5035865;28;20039;-57
2023/04/05 05:39:00;;;;;;;98.88;57.10;;;;;;;;;;5034504;28;20037;-57
2023/04/05 05:41:25;;;;;;;60.58;32.30;;;;;;;;;;5034470;28;20048;-56
2023/04/05 05:43:52;;;;;;;56.78;28.90;;;;;;;;;;5034208;28;20034;-64
2023/04/05 05:46:19;;;;;;;50.67;27.42;;;;;;;;;;5033687;28;20033;-65
2023/04/05 05:48:44;;;;;;;58.75;32.03;;;;;;;;;;5034034;28;20384;-57
2023/04/05 05:51:10;;;;;;;68.78;36.08;;;;;;;;;;5034292;28;20083;-57
2023/04/05 05:53:35;;;;;;;60.70;33.33;;;;;;;;;;5033148;28;20071;-57
2023/04/05 05:56:01;;;;;;;61.03;31.35;;;;;;;;;;5015137;28;20419;-57
2023/04/05 05:58:26;;;;;;;56.17;26.83;;;;;;;;;;5015945;28;20053;-57
2023/04/05 06:00:55;;;;;;;50.15;26.25;;;;;;;;;;5033746;28;20048;-57
2023/04/05 06:03:22;;;;;;;55.35;28.42;;;;;;;;;;5034347;28;20029;-57
2023/04/05 06:05:54;;;;;;;48.15;25.73;;;;;;;;;;5034236;28;20120;-57
2023/04/05 06:08:21;;;;;;;46.92;23.85;;;;;;;;;;5034415;28;20038;-56
2023/04/05 06:10:46;;;;;;;67.13;30.67;;;;;;;;;;5034766;28;20116;-65
2023/04/05 06:13:13;;;;;;;65.55;30.85;;;;;;;;;;5034796;28;20495;-64
2023/04/05 06:15:38;;;;;;;43.70;22.88;;;;;;;;;;5034834;28;20456;-64
2023/04/05 06:18:05;;;;;;;45.85;23.00;;;;;;;;;;5034854;28;20041;-64
2023/04/05 06:20:31;;;;;;;43.88;21.73;;;;;;;;;;5034876;28;20033;-64
2023/04/05 06:22:57;;;;;;;36.92;19.15;;;;;;;;;;5034779;28;20036;-65
2023/04/05 06:25:22;;;;;;;33.47;17.58;;;;;;;;;;5035010;28;20387;-65
2023/04/05 06:27:47;;;;;;;37.22;18.80;;;;;;;;;;5034368;28;20044;-64
2023/04/05 06:30:13;;;;;;;29.70;16.15;;;;;;;;;;5034481;28;20036;-64
2023/04/05 06:32:38;;;;;;;28.70;15.25;;;;;;;;;;5016834;28;20087;-65
2023/04/05 06:35:04;;;;;;;30.17;16.73;;;;;;;;;;5034392;28;20053;-64
2023/04/05 06:37:29;;;;;;;25.38;13.90;;;;;;;;;;5032726;28;20033;-65
2023/04/05 06:39:55;;;;;;;30.20;16.00;;;;;;;;;;5034322;28;20152;-64
2023/04/05 06:42:20;;;;;;;32.63;16.23;;;;;;;;;;5034295;28;20029;-64
2023/04/05 06:44:52;;;;;;;34.30;18.73;;;;;;;;;;5015618;28;20029;-64
2023/04/05 06:47:17;;;;;;;30.25;17.45;;;;;;;;;;5034104;28;20495;-64
2023/04/05 06:49:42;;;;;;;30.20;16.58;;;;;;;;;;5034136;28;20021;-64
2023/04/05 06:52:08;;;;;;;29.20;15.98;;;;;;;;;;5016308;28;20040;-64
2023/04/05 06:54:36;;;;;;;33.97;18.85;;;;;;;;;;5024237;28;20021;-64
2023/04/05 06:57:01;;;;;;;32.88;18.25;;;;;;;;;;5034006;28;20030;-64
2023/04/05 06:59:27;;;;;;;35.28;17.55;;;;;;;;;;5033902;28;20032;-64
2023/04/05 07:01:52;;;;;;;29.70;17.42;;;;;;;;;;5033629;28;20052;-64
2023/04/05 07:04:18;;;;;;;30.50;17.30;;;;;;;;;;5033874;28;20033;-64
2023/04/05 07:06:43;;;;;;;29.17;16.48;;;;;;;;;;5033911;28;20026;-64
2023/04/05 07:09:08;;;;;;;29.25;16.58;;;;;;;;;;5033968;28;20383;-64
2023/04/05 07:11:33;;;;;;;32.50;17.45;;;;;;;;;;5033763;28;20468;-64
2023/04/05 07:13:59;;;;;;;29.77;15.50;;;;;;;;;;5033731;28;20025;-64
2023/04/05 07:16:25;;;;;;;29.77;15.82;;;;;;;;;;5033687;28;20456;-64
2023/04/05 07:18:50;;;;;;;27.73;15.00;;;;;;;;;;5033654;28;20017;-64
2023/04/05 07:21:16;;;;;;;28.13;14.68;;;;;;;;;;5033692;28;20037;-64
2023/04/05 07:23:41;;;;;;;26.73;14.75;;;;;;;;;;5033600;28;20033;-64
2023/04/05 07:26:07;;;;;;;23.50;14.50;;;;;;;;;;5033489;28;20037;-65
2023/04/05 07:28:34;;;;;;;27.60;15.27;;;;;;;;;;5033715;28;20031;-64
2023/04/05 07:31:00;;;;;;;27.08;14.20;;;;;;;;;;5033487;28;20482;-65
2023/04/05 07:33:26;;;;;;;26.60;15.27;;;;;;;;;;5033442;28;20030;-64
2023/04/05 07:35:52;;;;;;;24.42;13.60;;;;;;;;;;5033489;28;20025;-64
2023/04/05 07:38:20;;;;;;;25.35;14.30;;;;;;;;;;5032081;28;20034;-64
2023/04/05 07:40:46;;;;;;;26.13;14.13;;;;;;;;;;5015665;28;20021;-64
2023/04/05 07:43:12;;;;;;;21.38;13.18;;;;;;;;;;5033427;28;20038;-64
2023/04/05 07:45:37;;;;;;;22.58;12.05;;;;;;;;;;5033350;28;20029;-64
2023/04/05 07:48:03;;;;;;;23.45;12.48;;;;;;;;;;5015639;28;20109;-64
2023/04/05 07:50:28;;;;;;;24.60;14.35;;;;;;;;;;5033235;28;20034;-64
2023/04/05 07:52:53;;;;;;;24.70;13.73;;;;;;;;;;5033340;28;20063;-64
2023/04/05 07:55:19;;;;;;;27.38;14.25;;;;;;;;;;5033607;28;20032;-64
2023/04/05 07:57:44;;;;;;;18.40;10.27;;;;;;;;;;5037330;28;20149;-64
2023/04/05 08:00:12;;;;;;;25.40;13.38;;;;;;;;;;5019607;28;20037;-64
2023/04/05 08:02:40;;;;;;;23.95;13.40;;;;;;;;;;5037315;28;20037;-64
2023/04/05 08:05:05;;;;;;;22.02;11.93;;;;;;;;;;5037237;28;20467;-64
2023/04/05 08:07:31;;;;;;;20.55;12.30;;;;;;;;;;5037203;28;20036;-64
2023/04/05 08:09:58;;;;;;;23.05;12.30;;;;;;;;;;5037139;28;20468;-64
2023/04/05 08:12:24;;;;;;;20.85;13.80;;;;;;;;;;5037065;28;20103;-64
2023/04/05 08:14:50;;;;;;;27.45;14.10;;;;;;;;;;5019341;28;20500;-64
2023/04/05 08:17:15;;;;;;;24.00;13.23;;;;;;;;;;5037102;28;20084;-64
2023/04/05 08:19:40;;;;;;;10.15;7.03;;;;;;;;;;5035630;28;20104;-64
2023/04/05 08:22:06;;;;;;;9.35;6.35;;;;;;;;;;5036850;28;20148;-64
2023/04/05 08:24:31;;;;;;;11.43;7.00;;;;;;;;;;5019076;28;20053;-64
2023/04/05 08:26:56;;;;;;;14.65;7.88;;;;;;;;;;5019099;28;20375;-64
2023/04/05 08:29:22;;;;;;;16.67;8.50;;;;;;;;;;5036820;28;20045;-64
2023/04/05 08:31:47;;;;;;;16.63;9.07;;;;;;;;;;5036815;28;20091;-64
2023/04/05 08:34:12;;;;;;;18.00;10.80;;;;;;;;;;5036696;28;20028;-64
2023/04/05 08:36:38;;;;;;;13.68;8.63;;;;;;;;;;5036611;28;20033;-64
2023/04/05 08:39:03;;;;;;;11.88;7.38;;;;;;;;;;5036609;28;20030;-64
2023/04/05 08:41:36;;;;;;;11.52;7.90;;;;;;;;;;5036529;28;20430;-64
2023/04/05 08:44:02;;;;;;;14.25;8.75;;;;;;;;;;5035155;28;20029;-64
2023/04/05 08:46:31;;;;;;;15.50;9.57;;;;;;;;;;5036225;28;20459;-64
2023/04/05 08:48:57;;;;;;;22.33;9.50;;;;;;;;;;5018607;28;20387;-64
2023/04/05 08:51:25;;;;;;;16.67;10.40;;;;;;;;;;5036337;28;20033;-64
2023/04/05 08:53:51;;;;;;;17.15;9.90;;;;;;;;;;5036307;28;20068;-64
2023/04/05 08:56:29;;;;;;;16.23;9.68;;;;;;;;;;5018866;28;20068;-64
2023/04/05 08:59:04;;;;;;;10.05;6.95;;;;;;;;;;5036236;28;20103;-64
2023/04/05 09:01:30;;;;;;;9.05;5.57;;;;;;;;;;5036059;28;20045;-64
2023/04/05 09:03:57;;;;;;;8.73;6.25;;;;;;;;;;5036155;28;20491;-65
2023/04/05 09:06:23;;;;;;;9.32;6.35;;;;;;;;;;5036152;28;20037;-64
2023/04/05 09:08:49;;;;;;;12.15;6.75;;;;;;;;;;5034754;28;20032;-64
2023/04/05 09:11:15;;;;;;;7.47;5.60;;;;;;;;;;5036067;28;20040;-64
2023/04/05 09:13:40;;;;;;;10.52;6.82;;;;;;;;;;5018189;28;20030;-64
2023/04/05 09:16:06;;;;;;;7.30;5.45;;;;;;;;;;5035894;28;20036;-64
2023/04/05 09:18:31;;;;;;;8.00;6.07;;;;;;;;;;5035952;28;20013;-64
2023/04/05 09:21:04;;;;;;;7.93;6.18;;;;;;;;;;5018167;28;20384;-64
2023/04/05 09:23:30;;;;;;;11.20;6.85;;;;;;;;;;5035718;28;20084;-64
2023/04/05 09:25:55;;;;;;;8.35;5.70;;;;;;;;;;5035707;28;20483;-64
2023/04/05 09:28:20;;;;;;;8.32;5.60;;;;;;;;;;5035609;28;20029;-64
2023/04/05 09:30:46;;;;;;;6.32;5.18;;;;;;;;;;5035672;28;20025;-64
2023/04/05 09:33:14;;;;;;;9.18;6.15;;;;;;;;;;5035611;28;20040;-65
2023/04/05 09:35:39;;;;;;;9.45;6.05;;;;;;;;;;5035533;28;20021;-64
2023/04/05 09:38:05;;;;;;;11.60;7.20;;;;;;;;;;5035468;28;20116;-64
2023/04/05 09:40:42;;;;;;;10.90;7.43;;;;;;;;;;5035507;28;20044;-64
2023/04/05 09:43:10;;;;;;;10.85;7.45;;;;;;;;;;5035380;28;20113;-64
2023/04/05 09:45:40;;;;;;;9.63;7.22;;;;;;;;;;5035393;28;20073;-64
2023/04/05 09:48:05;;;;;;;11.98;7.95;;;;;;;;;;5035246;28;20021;-64
2023/04/05 09:50:31;;;;;;;13.65;8.98;;;;;;;;;;5035582;28;20021;-64
2023/04/05 09:53:05;;;;;;;14.17;8.10;;;;;;;;;;5017403;28;20494;-64
2023/04/05 09:55:32;;;;;;;11.98;7.57;;;;;;;;;;5035148;28;20032;-64
2023/04/05 09:57:57;;;;;;;11.27;8.45;;;;;;;;;;5035130;28;20060;-64
2023/04/05 10:00:23;;;;;;;16.02;9.38;;;;;;;;;;5035003;28;20467;-64
2023/04/05 10:02:51;;;;;;;27.38;15.00;;;;;;;;;;5035025;28;20140;-64
2023/04/05 10:05:17;;;;;;;13.73;8.23;;;;;;;;;;5034965;28;20459;-64
2023/04/05 10:07:42;;;;;;;12.18;8.05;;;;;;;;;;5017217;28;20028;-64
2023/04/05 10:10:08;;;;;;;13.23;8.70;;;;;;;;;;5034859;28;20021;-64
2023/04/05 10:12:36;;;;;;;57.50;30.38;;;;;;;;;;5034845;28;20454;-64
2023/04/05 10:15:02;;;;;;;15.80;9.85;;;;;;;;;;5034813;28;20468;-64
2023/04/05 10:17:28;;;;;;;22.00;14.82;;;;;;;;;;5034740;28;20108;-64
2023/04/05 10:20:09;;;;;;;8.07;6.57;;;;;;;;;;5034571;28;20387;-64
2023/04/05 10:22:53;;;;;;;8.55;6.30;;;;;;;;;;5034816;28;20026;-64
2023/04/05 10:25:37;;;;;;;24.40;16.05;;;;;;;;;;5034653;28;20025;-64
2023/04/05 10:28:04;;;;;;;14.88;10.15;;;;;;;;;;5034492;28;20104;-64
2023/04/05 10:30:40;;;;;;;6.82;5.57;;;;;;;;;;5034507;28;20037;-64
2023/04/05 10:33:32;;;;;;;5.13;4.32;;;;;;;;;;5034430;28;20037;-64
2023/04/05 10:35:57;;;;;;;5.93;5.20;;;;;;;;;;5013817;28;20041;-64
2023/04/05 10:38:22;;;;;;;7.40;4.97;;;;;;;;;;5034397;28;20475;-64
2023/04/05 10:40:48;;;;;;;16.35;9.57;;;;;;;;;;5042873;23;20394;-57
2023/04/05 10:43:22;;;;;;;17.48;11.75;;;;;;;;;;5031108;28;20029;-65
2023/04/05 10:45:48;;;;;;;30.58;22.77;;;;;;;;;;5034333;28;20030;-64
2023/04/05 10:48:21;;;;;;;38.15;29.20;;;;;;;;;;5016361;28;20391;-64
2023/04/05 10:50:47;;;;;;;31.05;23.95;;;;;;;;;;5034170;28;20036;-64
2023/04/05 10:53:12;;;;;;;11.77;8.63;;;;;;;;;;5034281;28;20384;-64
2023/04/05 10:55:38;;;;;;;7.85;7.00;;;;;;;;;;5034068;28;20025;-64
2023/04/05 10:58:05;;;;;;;6.88;5.90;;;;;;;;;;5034024;28;20037;-64
2023/04/05 11:00:32;;;;;;;12.68;9.95;;;;;;;;;;5033927;28;20082;-64
2023/04/05 11:02:57;;;;;;;9.50;7.65;;;;;;;;;;5033049;28;20167;-64
2023/04/05 11:05:30;;;;;;;7.72;4.93;;;;;;;;;;5033898;28;20076;-65
2023/04/05 11:07:58;;;;;;;7.57;5.65;;;;;;;;;;5033819;28;20038;-64
2023/04/05 11:10:24;;;;;;;8.48;5.20;;;;;;;;;;5033786;28;20060;-64
2023/04/05 11:12:52;;;;;;;7.47;5.57;;;;;;;;;;5033722;28;20103;-64
2023/04/05 11:15:27;;;;;;;5.78;4.20;;;;;;;;;;5033790;28;20026;-64
2023/04/05 11:18:06;;;;;;;11.30;7.88;;;;;;;;;;5016069;28;20038;-64
2023/04/05 11:20:44;;;;;;;6.90;5.97;;;;;;;;;;5033723;28;20025;-65
2023/04/05 11:23:10;;;;;;;6.53;4.88;;;;;;;;;;5033615;28;20038;-65
2023/04/05 11:25:39;;;;;;;5.25;4.68;;;;;;;;;;5016202;28;20155;-64
2023/04/05 11:28:04;;;;;;;11.45;8.02;;;;;;;;;;5033456;28;20040;-64
2023/04/05 11:30:50;;;;;;;10.63;6.50;;;;;;;;;;5032932;28;20018;-64
2023/04/05 11:33:38;;;;;;;10.02;6.63;;;;;;;;;;5015911;28;20025;-64
2023/04/05 11:36:03;;;;;;;7.60;5.00;;;;;;;;;;5033394;28;20029;-64
2023/04/05 11:38:29;;;;;;;6.55;5.32;;;;;;;;;;5033380;28;20044;-65
2023/04/05 11:41:24;;;;;;;6.00;4.35;;;;;;;;;;5031915;28;20040;-64
2023/04/05 11:43:51;;;;;;;16.17;9.52;;;;;;;;;;5020516;28;20518;-64
2023/04/05 11:46:17;;;;;;;9.52;5.30;;;;;;;;;;5033328;28;20025;-65
2023/04/05 11:48:47;;;;;;;11.63;6.55;;;;;;;;;;5033201;28;20148;-64
2023/04/05 11:51:14;;;;;;;7.13;4.88;;;;;;;;;;5033297;28;20166;-64
2023/04/05 11:53:44;;;;;;;12.25;8.10;;;;;;;;;;5033220;28;20068;-65
2023/04/05 11:56:11;;;;;;;;;;;;;;;;;;5033491;28;20033;-64
2023/04/05 11:58:37;;;;;;;11.48;6.55;;;;;;;;;;5033247;28;19951;-64
2023/04/05 12:01:03;;;;;;;6.35;4.78;;;;;;;;;;5033242;28;20041;-64
2023/04/05 12:03:29;;;;;;;14.85;8.02;;;;;;;;;;5033110;28;20044;-65
2023/04/05 12:05:56;;;;;;;8.38;5.43;;;;;;;;;;5033159;28;20033;-64
2023/04/05 12:08:21;;;;;;;5.10;4.03;;;;;;;;;;5033001;28;20034;-65
2023/04/05 12:10:54;;;;;;;7.03;4.57;;;;;;;;;;5015383;28;20116;-64
2023/04/05 12:13:26;;;;;;;6.20;4.95;;;;;;;;;;5033092;28;20025;-64
2023/04/05 12:15:51;;;;;;;5.75;4.35;;;;;;;;;;5015494;28;20106;-64
2023/04/05 12:18:17;;;;;;;6.07;3.97;;;;;;;;;;5015352;28;20487;-64
2023/04/05 12:20:42;;;;;;;6.53;4.90;;;;;;;;;;5033035;28;20515;-64
2023/04/05 12:23:08;;;;;;;5.15;4.28;;;;;;;;;;5032923;28;20384;-65
2023/04/05 12:25:35;;;;;;;6.18;4.15;;;;;;;;;;5015403;28;20064;-64
2023/04/05 12:28:05;;;;;;;7.15;4.22;;;;;;;;;;5032859;28;20045;-65
2023/04/05 12:30:35;;;;;;;6.40;4.80;;;;;;;;;;5015293;28;20435;-65
2023/04/05 12:33:06;;;;;;;7.88;5.32;;;;;;;;;;5032936;28;20031;-64
2023/04/05 12:35:33;;;;;;;10.35;7.07;;;;;;;;;;5015232;28;20038;-64
2023/04/05 12:38:04;;;;;;;12.82;7.63;;;;;;;;;;5032885;28;20030;-64
2023/04/05 12:40:31;;;;;;;5.55;5.03;;;;;;;;;;5033410;28;20112;-56
2023/04/05 12:43:00;;;;;;;5.32;4.03;;;;;;;;;;5035551;28;20045;-56
2023/04/05 12:45:26;;;;;;;9.30;5.38;;;;;;;;;;5036564;28;20037;-56
2023/04/05 12:47:51;;;;;;;6.13;5.13;;;;;;;;;;5036411;28;20021;-56
2023/04/05 12:50:25;;;;;;;9.88;7.65;;;;;;;;;;5036436;28;20490;-57
2023/04/05 12:52:54;;;;;;;13.55;11.20;;;;;;;;;;5036958;28;20026;-56
2023/04/05 12:55:20;;;;;;;8.02;7.22;;;;;;;;;;5036946;28;20526;-56
2023/04/05 12:57:49;;;;;;;4.93;4.10;;;;;;;;;;5036617;28;20021;-56
2023/04/05 13:00:14;;;;;;;4.35;3.53;;;;;;;;;;5036820;28;20021;-57
2023/04/05 13:02:40;;;;;;;7.80;5.15;;;;;;;;;;5036819;28;20493;-57
2023/04/05 13:05:05;;;;;;;8.55;7.25;;;;;;;;;;5036698;28;20026;-56
2023/04/05 13:07:30;;;;;;;9.60;5.05;;;;;;;;;;5036872;28;20018;-56
2023/04/05 13:09:56;;;;;;;7.15;4.43;;;;;;;;;;5037169;28;20036;-56
2023/04/05 13:12:21;;;;;;;5.75;4.55;;;;;;;;;;5036592;28;20030;-56
2023/04/05 13:14:46;;;;;;;24.70;13.05;;;;;;;;;;5036303;28;20025;-57
2023/04/05 13:17:12;;;;;;;16.52;10.73;;;;;;;;;;5035867;28;20037;-57
2023/04/05 13:19:37;;;;;;;26.20;13.32;;;;;;;;;;5035936;28;20030;-57
2023/04/05 13:22:03;;;;;;;13.55;10.63;;;;;;;;;;5035705;28;20021;-57
2023/04/05 13:24:28;;;;;;;12.75;9.65;;;;;;;;;;5035727;28;20567;-56
2023/04/05 13:26:54;;;;;;;8.40;6.13;;;;;;;;;;5035438;28;20025;-57
2023/04/05 13:29:22;;;;;;;70.13;30.17;;;;;;;;;;5035286;28;20384;-56
2023/04/05 13:31:47;;;;;;;109.90;39.95;;;;;;;;;;5033798;28;20025;-56
2023/04/05 13:34:13;;;;;;;159.13;58.30;;;;;;;;;;5017242;28;20345;-56
2023/04/05 13:36:38;;;;;;;186.13;81.05;;;;;;;;;;5034889;28;20040;-56
2023/04/05 13:39:03;;;;;;;31.60;17.88;;;;;;;;;;5034826;28;20025;-56
2023/04/05 13:41:29;;;;;;;19.02;11.95;;;;;;;;;;5016991;28;20539;-56
2023/04/05 13:43:54;;;;;;;7.68;5.10;;;;;;;;;;5034725;28;20029;-56
2023/04/05 13:46:19;;;;;;;3.88;3.35;;;;;;;;;;5035213;28;20395;-56
2023/04/05 13:48:45;;;;;;;7.22;4.25;;;;;;;;;;5035521;28;20487;-56
2023/04/05 13:51:10;;;;;;;43.95;21.08;;;;;;;;;;5035869;28;20037;-56
2023/04/05 13:53:35;;;;;;;48.40;19.60;;;;;;;;;;5035058;28;20029;-56
2023/04/05 13:56:01;;;;;;;30.35;12.55;;;;;;;;;;5035773;28;20056;-56
2023/04/05 13:58:26;;;;;;;39.88;20.67;;;;;;;;;;5036071;28;20033;-56
2023/04/05 14:00:53;;;;;;;10.25;7.30;;;;;;;;;;5035394;28;20017;-57
2023/04/05 14:03:19;;;;;;;8.60;6.93;;;;;;;;;;5035603;28;20561;-56
2023/04/05 14:05:44;;;;;;;8.20;6.18;;;;;;;;;;5035251;28;20042;-56
2023/04/05 14:08:09;;;;;;;61.17;21.52;;;;;;;;;;5035498;28;20333;-56
2023/04/05 14:10:35;;;;;;;13.32;7.22;;;;;;;;;;5035517;28;20033;-56
2023/04/05 14:15:30;;;;;;;19.80;10.95;;;;;;;;;;5050874;23;20045;-57
2023/04/05 14:17:56;;;;;;;15.00;9.70;;;;;;;;;;5052997;28;20292;-57
2023/04/05 14:20:21;;;;;;;11.65;5.88;;;;;;;;;;5053311;28;20037;-57
2023/04/05 14:22:46;;;;;;;4.25;3.72;;;;;;;;;;5053587;28;20057;-64
2023/04/05 14:25:13;;;;;;;4.72;3.35;;;;;;;;;;5053542;28;20070;-56
2023/04/05 14:27:41;;;;;;;3.13;2.83;;;;;;;;;;5053615;28;20455;-65
2023/04/05 14:30:08;;;;;;;4.35;2.90;;;;;;;;;;5054107;28;20117;-64
2023/04/05 14:32:33;;;;;;;5.18;3.15;;;;;;;;;;5055212;28;20071;-64